Time;durP1;ratioP1;P1;durP2;ratioP2;P2;SDS_P1;SDS_P2;PMS_P1;PMS_P2;Temp;Humidity;BMP_temperature;BMP_pressure;BME280_temperature;BME280_humidity;BME280_pressure;Samples;Min_cycle;Max_cycle;Signal;HPM_P1;HPM_P2
2022/08/04 00:00:40;;;;;;;12.73;5.87;;;21.70;99.90;;;;;;2604837;39;20808;-79
2022/08/04 00:03:11;;;;;;;9.43;5.83;;;21.60;99.90;;;;;;2605975;54;20419;-79
2022/08/04 00:05:40;;;;;;;7.30;5.57;;;21.50;99.90;;;;;;2607292;39;20678;-79
2022/08/04 00:08:24;;;;;;;8.80;5.80;;;21.50;99.90;;;;;;2604994;54;20431;-79
2022/08/04 00:10:54;;;;;;;9.40;6.10;;;21.40;99.90;;;;;;2606333;54;21023;-80
2022/08/04 00:13:30;;;;;;;7.30;6.60;;;21.50;99.90;;;;;;2607898;54;20497;-79
2022/08/04 00:16:05;;;;;;;7.60;5.50;;;21.40;99.90;;;;;;2606201;54;20435;-79
2022/08/04 00:18:56;;;;;;;6.10;5.60;;;21.40;99.90;;;;;;2605726;54;20418;-79
2022/08/04 00:21:24;;;;;;;10.80;6.40;;;21.30;99.90;;;;;;2606625;54;20435;-79
2022/08/04 00:23:53;;;;;;;6.53;5.93;;;21.20;99.90;;;;;;2607402;54;20430;-79
2022/08/04 00:26:19;;;;;;;9.60;7.73;;;21.20;99.90;;;;;;2607258;54;20415;-78
2022/08/04 00:28:46;;;;;;;7.47;6.77;;;21.20;99.90;;;;;;2607621;39;20874;-79
2022/08/04 00:31:14;;;;;;;7.10;5.93;;;21.20;99.90;;;;;;2605905;54;20518;-78
2022/08/04 00:33:44;;;;;;;8.97;6.67;;;21.10;99.90;;;;;;2607787;54;20447;-79
2022/08/04 00:36:13;;;;;;;8.07;7.07;;;21.10;99.90;;;;;;2606638;54;21194;-78
2022/08/04 00:38:43;;;;;;;13.20;7.00;;;21.10;99.90;;;;;;2607265;54;20883;-79
2022/08/04 00:41:29;;;;;;;8.70;6.80;;;21.10;99.90;;;;;;2607694;47;20424;-78
2022/08/04 00:43:55;;;;;;;8.03;6.57;;;21.10;99.90;;;;;;2605537;54;20439;-78
2022/08/04 00:46:39;;;;;;;10.57;6.27;;;21.10;99.90;;;;;;2607077;39;20960;-78
2022/08/04 00:49:07;;;;;;;8.73;6.70;;;21.10;99.90;;;;;;2605866;54;20260;-77
2022/08/04 00:51:47;;;;;;;13.73;6.23;;;21.10;99.90;;;;;;2606217;54;20454;-78
2022/08/04 00:54:15;;;;;;;16.07;8.30;;;21.10;99.90;;;;;;2605072;54;20446;-79
2022/08/04 00:57:18;;;;;;;9.37;6.10;;;21.00;99.90;;;;;;2607560;54;20466;-80
2022/08/04 01:00:10;;;;;;;12.03;6.90;;;21.10;99.90;;;;;;2611671;54;20467;-79
2022/08/04 01:02:38;;;;;;;10.20;6.60;;;21.00;99.90;;;;;;2613204;53;20836;-80
2022/08/04 01:05:14;;;;;;;6.43;5.83;;;20.90;99.90;;;;;;2611948;54;20439;-80
2022/08/04 01:07:49;;;;;;;7.00;5.57;;;20.90;99.90;;;;;;2610204;54;20422;-76
2022/08/04 01:10:45;;;;;;;6.63;5.57;;;20.80;99.90;;;;;;2612097;47;20420;-76
2022/08/04 01:13:38;;;;;;;7.10;6.43;;;20.70;99.90;;;;;;2608213;54;21142;-76
2022/08/04 01:16:07;;;;;;;8.13;5.70;;;20.70;99.90;;;;;;2610895;54;20435;-75
2022/08/04 01:18:43;;;;;;;11.43;6.30;;;20.70;99.90;;;;;;2612774;54;20420;-76
2022/08/04 01:21:27;;;;;;;6.90;6.20;;;20.70;99.90;;;;;;2611037;47;20488;-78
2022/08/04 01:23:56;;;;;;;7.67;6.30;;;20.70;99.90;;;;;;2612755;54;20427;-77
2022/08/04 01:26:49;;;;;;;7.10;6.07;;;20.60;99.90;;;;;;2613326;54;20439;-87
2022/08/04 01:29:19;;;;;;;6.57;6.00;;;20.60;99.90;;;;;;2613205;54;20434;-85
2022/08/04 01:32:07;;;;;;;7.67;6.60;;;20.50;99.90;;;;;;2612694;54;20451;-76
2022/08/04 01:34:46;;;;;;;7.87;6.60;;;20.40;99.90;;;;;;2612764;54;20485;-75
2022/08/04 01:37:48;;;;;;;9.07;6.20;;;20.40;99.90;;;;;;2614473;54;20430;-77
2022/08/04 01:40:15;;;;;;;9.57;6.47;;;20.40;99.90;;;;;;2612064;54;20446;-78
2022/08/04 01:42:44;;;;;;;10.50;6.37;;;20.30;99.90;;;;;;2613191;54;20446;-76
2022/08/04 01:45:12;;;;;;;9.50;6.40;;;20.20;99.90;;;;;;2608311;54;21335;-75
2022/08/04 01:47:42;;;;;;;8.10;5.97;;;20.20;99.90;;;;;;2603593;54;21209;-76
2022/08/04 01:50:10;;;;;;;7.10;6.50;;;20.20;99.90;;;;;;2606952;54;20431;-76
2022/08/04 01:52:38;;;;;;;9.90;6.90;;;20.20;99.90;;;;;;2607273;54;20416;-77
2022/08/04 01:55:08;;;;;;;9.43;6.87;;;20.30;99.90;;;;;;2607370;39;20815;-76
2022/08/04 01:57:55;;;;;;;7.97;6.20;;;20.20;99.90;;;;;;2607196;39;21355;-75
2022/08/04 02:00:25;;;;;;;7.10;6.10;;;20.10;99.90;;;;;;2604368;39;20850;-77
2022/08/04 02:02:51;;;;;;;7.50;6.80;;;20.10;99.90;;;;;;2603149;54;20438;-76
2022/08/04 02:05:20;;;;;;;14.90;7.33;;;20.10;99.90;;;;;;2602937;39;20810;-78
2022/08/04 02:08:06;;;;;;;11.27;6.50;;;20.10;99.90;;;;;;2603695;39;20482;-76
2022/08/04 02:10:53;;;;;;;9.33;6.17;;;20.10;99.90;;;;;;2603078;39;20668;-77
2022/08/04 02:13:25;;;;;;;8.53;5.63;;;20.00;99.90;;;;;;2603231;39;20710;-77
2022/08/04 02:16:10;;;;;;;9.63;7.10;;;19.90;99.90;;;;;;2606698;39;21196;-77
2022/08/04 02:19:07;;;;;;;8.57;6.80;;;20.00;99.90;;;;;;2607264;39;20818;-76
2022/08/04 02:21:34;;;;;;;7.53;6.83;;;20.00;99.90;;;;;;2605625;39;20822;-75
2022/08/04 02:24:14;;;;;;;9.20;6.60;;;20.00;99.90;;;;;;2608180;54;20424;-76
2022/08/04 02:26:41;;;;;;;11.20;6.90;;;20.10;99.90;;;;;;2607895;54;20425;-76
2022/08/04 02:29:07;;;;;;;6.87;6.17;;;20.10;99.90;;;;;;2607825;54;20414;-76
2022/08/04 02:31:43;;;;;;;7.33;6.63;;;20.10;99.90;;;;;;2607161;54;20984;-78
2022/08/04 02:34:31;;;;;;;6.80;6.07;;;20.00;99.90;;;;;;2607796;54;20168;-76
2022/08/04 02:36:59;;;;;;;10.63;7.20;;;20.00;99.90;;;;;;2607247;54;20411;-76
2022/08/04 02:39:30;;;;;;;9.20;6.73;;;19.90;99.90;;;;;;2608124;54;20509;-76
2022/08/04 02:41:58;;;;;;;10.07;6.97;;;19.80;99.90;;;;;;2606618;54;20424;-79
2022/08/04 02:44:26;;;;;;;9.57;6.63;;;19.90;99.90;;;;;;2608653;54;20426;-75
2022/08/04 02:46:53;;;;;;;7.40;6.70;;;19.80;99.90;;;;;;2612663;54;20462;-76
2022/08/04 02:49:21;;;;;;;11.80;7.57;;;19.80;99.90;;;;;;2613011;54;20518;-79
2022/08/04 02:51:53;;;;;;;6.90;6.30;;;19.70;99.90;;;;;;2611628;54;20414;-78
2022/08/04 02:54:24;;;;;;;10.70;6.70;;;19.70;99.90;;;;;;2614748;39;21037;-80
2022/08/04 02:56:52;;;;;;;7.67;6.93;;;19.70;99.90;;;;;;2613603;54;20517;-80
2022/08/04 02:59:22;;;;;;;11.17;7.00;;;19.60;99.90;;;;;;2614423;54;20452;-74
2022/08/04 03:01:47;;;;;;;7.33;6.53;;;19.70;99.90;;;;;;2606559;47;20426;-75
2022/08/04 03:04:13;;;;;;;9.83;7.03;;;19.70;99.90;;;;;;2612979;54;20982;-82
2022/08/04 03:06:57;;;;;;;10.03;7.30;;;19.60;99.90;;;;;;2613484;54;20162;-82
2022/08/04 03:09:29;;;;;;;8.50;7.23;;;19.50;99.90;;;;;;2611321;54;21000;-81
2022/08/04 03:12:23;;;;;;;16.97;8.00;;;19.60;99.90;;;;;;2611510;47;20412;-82
2022/08/04 03:15:11;;;;;;;6.80;6.27;;;19.70;99.90;;;;;;2616577;54;20464;-87
2022/08/04 03:17:59;;;;;;;12.70;6.30;;;19.70;99.90;;;;;;2612031;54;20420;-87
2022/08/04 03:20:52;;;;;;;9.60;6.50;;;19.60;99.90;;;;;;2608209;47;20526;-87
2022/08/04 03:23:33;;;;;;;7.43;6.77;;;19.50;99.90;;;;;;2609088;54;20428;-87
2022/08/04 03:26:13;;;;;;;6.73;6.13;;;19.50;99.90;;;;;;2609173;39;20834;-87
2022/08/04 03:29:09;;;;;;;9.00;7.70;;;19.50;99.90;;;;;;2610309;54;21651;-87
2022/08/04 03:31:43;;;;;;;11.07;7.43;;;19.40;99.90;;;;;;2609153;54;20537;-88
2022/08/04 03:34:42;;;;;;;7.83;7.13;;;19.40;99.90;;;;;;2610058;47;21318;-87
2022/08/04 03:37:19;;;;;;;8.70;6.70;;;19.30;99.90;;;;;;2609880;47;20491;-88
2022/08/04 03:40:24;;;;;;;8.17;6.67;;;19.40;99.90;;;;;;2609392;54;20426;-87
2022/08/04 03:43:11;;;;;;;10.37;6.70;;;19.50;99.90;;;;;;2611667;54;20420;-87
2022/08/04 03:45:50;;;;;;;8.90;6.63;;;19.40;99.90;;;;;;2611284;54;20422;-88
2022/08/04 03:48:30;;;;;;;6.97;5.90;;;19.20;99.90;;;;;;2611683;54;21777;-89
2022/08/04 03:54:01;;;;;;;10.23;7.07;;;19.10;99.90;;;;;;2608767;54;20510;-88
2022/08/04 03:56:38;;;;;;;9.77;6.57;;;18.90;99.90;;;;;;2607191;47;20434;-89
2022/08/04 03:59:22;;;;;;;7.50;6.90;;;19.00;99.90;;;;;;2606725;39;20823;-88
2022/08/04 04:02:18;;;;;;;8.23;7.40;;;19.00;99.90;;;;;;2608988;54;20457;-88
2022/08/04 04:05:05;;;;;;;17.30;7.80;;;19.00;99.90;;;;;;2616352;54;20591;-88
2022/08/04 04:07:56;;;;;;;10.20;6.70;;;19.10;99.90;;;;;;2613079;54;20423;-88
2022/08/04 04:10:40;;;;;;;11.43;7.07;;;19.10;99.90;;;;;;2613190;54;20442;-88
2022/08/04 04:13:15;;;;;;;8.80;6.83;;;19.20;99.90;;;;;;2607754;39;20816;-88
2022/08/04 04:15:50;;;;;;;10.07;7.60;;;19.20;99.90;;;;;;2608142;54;20438;-85
2022/08/04 04:18:26;;;;;;;12.17;7.77;;;19.30;99.90;;;;;;2608060;54;20482;-87
2022/08/04 04:21:09;;;;;;;9.80;6.77;;;19.30;99.90;;;;;;2607142;31;20561;-88
2022/08/04 04:23:56;;;;;;;8.23;7.17;;;19.30;99.90;;;;;;2605063;54;20592;-88
2022/08/04 04:26:52;;;;;;;6.97;6.20;;;19.50;99.90;;;;;;2607802;54;20434;-88
2022/08/04 04:29:46;;;;;;;11.23;7.73;;;19.40;99.90;;;;;;2610627;54;20460;-80
2022/08/04 04:32:30;;;;;;;10.13;7.30;;;19.30;99.90;;;;;;2610784;54;20439;-80
2022/08/04 04:35:31;;;;;;;7.33;6.07;;;19.40;99.90;;;;;;2613890;54;20562;-80
2022/08/04 04:38:24;;;;;;;8.90;6.73;;;19.50;99.90;;;;;;2613295;31;20848;-80
2022/08/04 04:41:04;;;;;;;9.50;6.83;;;19.60;99.90;;;;;;2609288;47;20434;-77
2022/08/04 04:43:54;;;;;;;11.03;6.93;;;19.50;99.90;;;;;;2611398;54;20458;-76
2022/08/04 04:46:44;;;;;;;17.60;7.23;;;19.50;99.90;;;;;;2608022;54;20411;-77
2022/08/04 04:49:33;;;;;;;12.20;7.57;;;19.60;99.90;;;;;;2610512;54;20885;-76
2022/08/04 04:52:25;;;;;;;9.03;7.03;;;19.60;99.90;;;;;;2605171;54;20589;-76
2022/08/04 04:55:04;;;;;;;7.73;7.13;;;19.70;99.90;;;;;;2610965;54;20413;-75
2022/08/04 04:57:34;;;;;;;7.70;6.77;;;19.80;99.90;;;;;;2611710;54;20420;-75
2022/08/04 05:00:12;;;;;;;14.93;7.40;;;19.80;99.90;;;;;;2610708;54;20429;-87
2022/08/04 05:02:56;;;;;;;8.67;6.80;;;20.00;99.90;;;;;;2612944;54;20403;-88
2022/08/04 05:06:03;;;;;;;9.40;6.97;;;20.20;99.90;;;;;;2611147;39;20938;-79
2022/08/04 05:08:37;;;;;;;14.40;7.80;;;20.50;99.90;;;;;;2606433;54;21025;-80
2022/08/04 05:11:06;;;;;;;10.90;7.67;;;20.70;99.90;;;;;;2605965;47;21452;-79
2022/08/04 05:13:36;;;;;;;11.73;7.00;;;20.90;99.90;;;;;;2607137;39;20577;-79
2022/08/04 05:16:17;;;;;;;9.80;6.90;;;21.10;99.90;;;;;;2604983;47;20423;-79
2022/08/04 05:18:48;;;;;;;9.70;6.43;;;21.10;99.90;;;;;;2604923;54;21034;-80
2022/08/04 05:21:43;;;;;;;8.40;6.80;;;21.20;99.90;;;;;;2602945;39;20523;-81
2022/08/04 05:24:12;;;;;;;13.50;7.57;;;21.20;99.90;;;;;;2602328;31;20557;-80
2022/08/04 05:26:46;;;;;;;8.53;7.40;;;21.10;99.90;;;;;;2603252;54;20415;-80
2022/08/04 05:29:26;;;;;;;9.23;7.40;;;21.30;99.90;;;;;;2605248;54;20422;-80
2022/08/04 05:31:54;;;;;;;13.40;7.30;;;22.20;99.90;;;;;;2604944;54;20439;-80
2022/08/04 05:34:29;;;;;;;9.30;8.10;;;22.50;99.90;;;;;;2605297;47;20434;-80
2022/08/04 05:37:10;;;;;;;13.50;7.40;;;22.70;99.90;;;;;;2604761;54;20661;-80
2022/08/04 05:39:43;;;;;;;10.10;8.67;;;23.30;99.90;;;;;;2604718;54;20423;-79
2022/08/04 05:42:10;;;;;;;10.57;7.83;;;23.80;99.90;;;;;;2606186;39;20884;-80
2022/08/04 05:44:37;;;;;;;8.33;7.60;;;24.00;99.90;;;;;;2606309;54;20438;-80
2022/08/04 05:47:04;;;;;;;12.63;7.43;;;23.90;99.90;;;;;;2602814;54;20434;-80
2022/08/04 05:49:32;;;;;;;13.93;7.00;;;24.10;99.90;;;;;;2605604;39;20500;-81
2022/08/04 05:52:01;;;;;;;7.80;7.10;;;24.40;99.40;;;;;;2604205;54;20626;-81
2022/08/04 05:54:29;;;;;;;8.90;7.50;;;24.70;95.00;;;;;;2604896;31;20553;-79
2022/08/04 05:56:57;;;;;;;8.57;7.87;;;24.40;93.90;;;;;;2602233;39;21000;-80
2022/08/04 05:59:24;;;;;;;10.90;7.27;;;24.10;95.30;;;;;;2603826;54;20468;-79
2022/08/04 06:01:50;;;;;;;8.47;7.53;;;24.20;95.30;;;;;;2604866;54;20447;-79
2022/08/04 06:04:18;;;;;;;10.80;7.20;;;24.80;96.30;;;;;;2608008;54;21365;-80
2022/08/04 06:06:46;;;;;;;9.50;7.00;;;25.00;94.20;;;;;;2607704;54;20416;-80
2022/08/04 06:09:12;;;;;;;7.63;6.90;;;24.70;94.20;;;;;;2608408;54;21178;-79
2022/08/04 06:11:39;;;;;;;7.30;6.60;;;25.30;91.60;;;;;;2609587;54;20407;-80
2022/08/04 06:14:08;;;;;;;7.83;7.13;;;25.50;86.60;;;;;;2602569;54;20197;-80
2022/08/04 06:16:39;;;;;;;8.40;6.77;;;25.90;83.30;;;;;;2604345;54;20438;-80
2022/08/04 06:19:13;;;;;;;13.63;8.43;;;25.90;86.90;;;;;;2603176;54;20473;-79
2022/08/04 06:21:44;;;;;;;9.20;8.20;;;26.20;67.80;;;;;;2607484;54;20410;-80
2022/08/04 06:24:14;;;;;;;8.33;7.53;;;26.60;62.90;;;;;;2609668;54;20413;-80
2022/08/04 06:26:42;;;;;;;10.20;7.63;;;26.60;59.70;;;;;;2610955;47;21416;-79
2022/08/04 06:29:19;;;;;;;8.07;7.30;;;26.60;60.30;;;;;;2610657;54;21052;-80
2022/08/04 06:31:57;;;;;;;11.30;8.00;;;26.70;51.90;;;;;;2613123;54;20960;-75
2022/08/04 06:34:24;;;;;;;8.60;7.87;;;27.30;41.30;;;;;;2612060;39;20851;-79
2022/08/04 06:36:50;;;;;;;10.10;8.43;;;27.20;38.10;;;;;;2632572;36;20481;-81
2022/08/04 06:39:17;;;;;;;10.53;8.47;;;28.10;23.40;;;;;;2614088;54;20420;-81
2022/08/04 06:41:43;;;;;;;8.50;7.80;;;28.00;26.10;;;;;;2607313;54;20470;-81
2022/08/04 06:44:10;;;;;;;10.27;7.87;;;27.80;22.70;;;;;;2612149;54;20418;-81
2022/08/04 06:46:38;;;;;;;7.47;6.90;;;28.50;19.90;;;;;;2609220;31;20872;-80
2022/08/04 06:49:05;;;;;;;9.53;7.10;;;28.40;18.00;;;;;;2607450;54;20537;-81
2022/08/04 06:51:33;;;;;;;7.37;6.77;;;28.00;19.50;;;;;;2607413;47;20430;-83
2022/08/04 06:53:59;;;;;;;6.90;6.40;;;28.80;15.90;;;;;;2606451;54;20450;-81
2022/08/04 06:56:28;;;;;;;7.37;6.73;;;28.90;15.60;;;;;;2606133;54;20430;-81
2022/08/04 06:58:54;;;;;;;8.17;7.40;;;29.30;14.90;;;;;;2607299;54;20296;-80
2022/08/04 07:01:21;;;;;;;7.47;6.87;;;29.60;12.40;;;;;;2607523;54;20411;-81
2022/08/04 07:03:48;;;;;;;7.60;6.97;;;29.40;9.10;;;;;;2609524;39;20831;-81
2022/08/04 07:06:14;;;;;;;7.40;6.97;;;30.00;7.10;;;;;;2607511;54;20454;-80
2022/08/04 07:08:40;;;;;;;7.17;6.77;;;30.70;6.70;;;;;;2607996;47;20599;-79
2022/08/04 07:11:07;;;;;;;8.50;7.07;;;30.90;6.10;;;;;;2609077;54;20456;-80
2022/08/04 07:13:32;;;;;;;7.67;7.03;;;31.10;4.00;;;;;;2607775;54;20556;-82
2022/08/04 07:15:59;;;;;;;7.53;6.83;;;31.00;1.30;;;;;;2608949;54;20433;-84
2022/08/04 07:18:25;;;;;;;6.93;6.43;;;30.70;2.20;;;;;;2606568;54;20273;-84
2022/08/04 07:20:52;;;;;;;9.83;6.83;;;30.90;2.10;;;;;;2608159;54;22017;-83
2022/08/04 07:23:23;;;;;;;7.00;6.50;;;31.30;1.00;;;;;;2609418;54;20434;-84
2022/08/04 07:25:57;;;;;;;7.63;7.10;;;31.20;1.00;;;;;;2606786;47;20428;-85
2022/08/04 07:28:25;;;;;;;6.93;6.53;;;31.60;1.00;;;;;;2608777;54;20413;-82
2022/08/04 07:30:52;;;;;;;7.60;7.10;;;30.70;1.00;;;;;;2608214;54;20428;-82
2022/08/04 07:33:19;;;;;;;7.10;6.60;;;31.50;1.00;;;;;;2608717;54;20557;-83
2022/08/04 07:35:48;;;;;;;7.77;7.13;;;31.30;1.00;;;;;;2608337;54;20429;-82
2022/08/04 07:38:14;;;;;;;7.53;7.10;;;29.70;1.00;;;;;;2607137;47;20446;-81
2022/08/04 07:40:40;;;;;;;7.13;6.63;;;29.80;1.00;;;;;;2607400;54;20443;-83
2022/08/04 07:43:07;;;;;;;7.93;7.13;;;31.00;1.00;;;;;;2615312;54;20206;-77
2022/08/04 07:45:33;;;;;;;7.40;7.00;;;31.90;1.00;;;;;;2608816;54;20414;-75
2022/08/04 07:47:59;;;;;;;7.33;6.77;;;31.70;1.00;;;;;;2613175;39;20794;-75
2022/08/04 07:50:27;;;;;;;7.60;6.80;;;31.60;1.00;;;;;;2612990;47;20440;-75
2022/08/04 07:52:53;;;;;;;7.33;6.80;;;31.80;1.00;;;;;;2613457;39;20934;-76
2022/08/04 07:55:20;;;;;;;7.40;6.67;;;32.00;1.00;;;;;;2613184;46;20447;-79
2022/08/04 07:57:46;;;;;;;7.23;6.60;;;31.60;1.00;;;;;;2612971;54;20407;-79
2022/08/04 08:00:15;;;;;;;7.07;6.67;;;32.00;1.00;;;;;;2607629;46;20443;-78
2022/08/04 08:02:42;;;;;;;6.93;6.53;;;32.20;1.00;;;;;;2606358;54;20547;-78
2022/08/04 08:05:13;;;;;;;13.77;8.10;;;30.80;1.00;;;;;;2606440;54;20881;-77
2022/08/04 08:07:39;;;;;;;7.27;6.77;;;31.60;1.00;;;;;;2607419;54;20418;-77
2022/08/04 08:10:12;;;;;;;8.40;7.47;;;31.10;1.00;;;;;;2608016;46;20423;-77
2022/08/04 08:12:38;;;;;;;6.90;6.50;;;31.40;1.00;;;;;;2606078;54;20168;-77
2022/08/04 08:15:06;;;;;;;8.50;7.10;;;30.90;1.00;;;;;;2606010;54;20537;-77
2022/08/04 08:17:32;;;;;;;7.63;7.13;;;32.20;1.00;;;;;;2605266;54;21277;-79
2022/08/04 08:19:58;;;;;;;7.83;7.30;;;33.00;1.00;;;;;;2606801;54;20437;-77
2022/08/04 08:22:24;;;;;;;7.87;7.40;;;32.20;1.00;;;;;;2605918;54;20425;-79
2022/08/04 08:24:50;;;;;;;8.10;7.40;;;32.20;1.00;;;;;;2606175;39;20375;-77
2022/08/04 08:27:16;;;;;;;8.17;7.47;;;32.60;1.00;;;;;;2605909;54;20431;-76
2022/08/04 08:29:42;;;;;;;6.93;6.53;;;32.30;1.00;;;;;;2604155;54;20556;-77
2022/08/04 08:32:12;;;;;;;6.53;6.10;;;32.60;1.00;;;;;;2605370;47;20203;-78
2022/08/04 08:34:38;;;;;;;7.40;6.50;;;32.70;1.00;;;;;;2604449;39;20468;-78
2022/08/04 08:37:34;;;;;;;6.93;6.53;;;32.00;1.00;;;;;;2603840;47;20435;-76
2022/08/04 08:40:34;;;;;;;7.40;6.60;;;32.10;1.00;;;;;;2605309;54;20455;-77
2022/08/04 08:43:18;;;;;;;6.97;6.43;;;32.80;1.00;;;;;;2605309;54;21135;-77
2022/08/04 08:45:55;;;;;;;7.67;7.17;;;32.40;1.00;;;;;;2603993;54;20430;-77
2022/08/04 08:48:40;;;;;;;7.27;6.77;;;32.30;1.00;;;;;;2604334;54;20429;-77
2022/08/04 08:51:30;;;;;;;10.03;6.93;;;31.90;1.00;;;;;;2604416;31;21219;-76
2022/08/04 08:54:28;;;;;;;7.30;6.90;;;33.90;1.00;;;;;;2606694;54;20427;-77
2022/08/04 08:57:00;;;;;;;7.50;6.90;;;32.90;1.00;;;;;;2607107;39;20610;-77
2022/08/04 08:59:47;;;;;;;7.00;6.50;;;32.90;1.00;;;;;;2606027;39;20807;-76
2022/08/04 09:02:31;;;;;;;7.60;7.10;;;33.20;1.00;;;;;;2604834;39;20860;-77
2022/08/04 09:05:00;;;;;;;6.73;6.43;;;33.60;1.00;;;;;;2605981;39;20484;-77
2022/08/04 09:08:03;;;;;;;7.57;6.97;;;34.30;1.00;;;;;;2606792;39;20886;-76
2022/08/04 09:10:47;;;;;;;7.17;6.77;;;34.20;1.00;;;;;;2605782;54;20555;-76
2022/08/04 09:13:33;;;;;;;7.07;6.67;;;34.10;1.00;;;;;;2604370;39;22117;-76
2022/08/04 09:16:02;;;;;;;8.00;7.20;;;34.50;1.00;;;;;;2606053;54;20590;-76
2022/08/04 09:18:53;;;;;;;7.30;6.60;;;34.20;1.00;;;;;;2607078;54;20611;-77
2022/08/04 09:21:21;;;;;;;6.43;6.13;;;34.00;1.00;;;;;;2606305;39;20735;-77
2022/08/04 09:24:14;;;;;;;7.10;6.50;;;33.00;1.00;;;;;;2607811;47;20430;-77
2022/08/04 09:26:48;;;;;;;7.10;6.60;;;33.10;1.00;;;;;;2606777;54;20435;-78
2022/08/04 09:29:26;;;;;;;6.77;6.47;;;34.40;1.00;;;;;;2607506;54;20442;-76
2022/08/04 09:32:10;;;;;;;7.13;6.57;;;35.10;1.00;;;;;;2607359;54;21285;-76
2022/08/04 09:34:58;;;;;;;7.97;6.30;;;35.40;1.00;;;;;;2605171;47;20439;-77
2022/08/04 09:37:43;;;;;;;6.70;6.20;;;35.90;1.00;;;;;;2604709;47;20438;-78
2022/08/04 09:40:24;;;;;;;6.93;6.40;;;34.80;1.00;;;;;;2605801;54;20411;-77
2022/08/04 09:43:05;;;;;;;6.40;6.10;;;35.90;1.00;;;;;;2606083;54;20461;-77
2022/08/04 09:45:35;;;;;;;6.73;6.33;;;36.40;1.00;;;;;;2606326;54;20423;-76
2022/08/04 09:48:23;;;;;;;8.33;7.30;;;36.20;1.00;;;;;;2605124;39;20835;-77
2022/08/04 09:50:56;;;;;;;7.30;6.67;;;34.90;1.00;;;;;;2606439;39;20800;-76
2022/08/04 09:54:04;;;;;;;8.03;7.43;;;35.00;1.00;;;;;;2609344;46;20439;-77
2022/08/04 09:56:38;;;;;;;7.97;7.40;;;34.10;1.00;;;;;;2614447;39;20904;-78
2022/08/04 09:59:17;;;;;;;7.87;7.50;;;34.50;1.00;;;;;;2614035;54;20419;-81
2022/08/04 10:01:45;;;;;;;8.27;7.53;;;34.90;1.00;;;;;;2614133;47;20421;-79
2022/08/04 10:04:13;;;;;;;8.10;7.40;;;34.50;1.00;;;;;;2614165;54;20487;-76
2022/08/04 10:07:02;;;;;;;8.00;7.60;;;33.50;1.00;;;;;;2614249;54;20408;-75
2022/08/04 10:09:49;;;;;;;8.10;7.70;;;33.10;1.00;;;;;;2610500;54;20543;-76
2022/08/04 10:12:49;;;;;;;7.67;7.17;;;32.20;1.00;;;;;;2608074;54;21052;-76
2022/08/04 10:15:14;;;;;;;8.60;8.03;;;32.70;1.00;;;;;;2607860;39;20712;-75
2022/08/04 10:18:09;;;;;;;7.80;7.17;;;32.60;1.00;;;;;;2609130;31;20656;-77
2022/08/04 10:20:54;;;;;;;7.60;6.97;;;33.20;1.00;;;;;;2608362;39;20616;-77
2022/08/04 10:23:50;;;;;;;7.50;7.00;;;33.10;1.00;;;;;;2608059;54;20446;-77
2022/08/04 10:26:47;;;;;;;7.50;6.90;;;33.50;1.00;;;;;;2612478;54;20446;-77
2022/08/04 10:29:40;;;;;;;9.27;7.33;;;33.10;1.00;;;;;;2607782;54;20415;-78
2022/08/04 10:32:08;;;;;;;8.50;7.70;;;34.10;1.00;;;;;;2612320;47;20447;-77
2022/08/04 10:35:12;;;;;;;7.63;7.20;;;34.00;1.00;;;;;;2615805;54;20423;-83
2022/08/04 10:37:52;;;;;;;8.10;7.60;;;33.70;1.00;;;;;;2614023;54;20396;-83
2022/08/04 10:40:36;;;;;;;9.40;8.50;;;34.20;1.00;;;;;;2614647;54;20439;-78
2022/08/04 10:43:30;;;;;;;8.27;7.47;;;34.40;1.00;;;;;;2614804;54;20451;-77
2022/08/04 10:46:18;;;;;;;7.80;7.20;;;33.50;1.00;;;;;;2611350;54;21538;-80
2022/08/04 10:49:02;;;;;;;8.37;7.80;;;32.70;1.00;;;;;;2611295;47;20440;-79
2022/08/04 10:51:52;;;;;;;8.93;8.13;;;32.90;1.00;;;;;;2613496;54;20426;-80
2022/08/04 10:54:46;;;;;;;8.20;7.60;;;33.10;1.00;;;;;;2614518;54;20540;-79
2022/08/04 10:57:16;;;;;;;8.77;8.07;;;32.90;1.00;;;;;;2614474;54;20435;-79
2022/08/04 10:59:58;;;;;;;9.57;8.60;;;32.80;1.00;;;;;;2615926;54;20402;-82
2022/08/04 11:02:39;;;;;;;10.20;9.30;;;32.60;1.00;;;;;;2615142;54;20428;-83
2022/08/04 11:05:27;;;;;;;10.70;8.83;;;32.80;1.00;;;;;;2614659;54;20413;-84
2022/08/04 11:07:59;;;;;;;12.73;9.70;;;33.10;1.00;;;;;;2616500;39;20779;-82
2022/08/04 11:10:32;;;;;;;9.50;8.80;;;33.40;1.00;;;;;;2614143;54;20427;-84
2022/08/04 11:13:03;;;;;;;9.80;8.90;;;32.90;1.00;;;;;;2609359;54;20543;-82
2022/08/04 11:15:45;;;;;;;9.00;8.30;;;32.90;1.00;;;;;;2610450;39;20830;-82
2022/08/04 11:18:22;;;;;;;12.13;9.67;;;34.00;1.00;;;;;;2609344;54;20415;-82
2022/08/04 11:20:55;;;;;;;9.03;7.83;;;33.90;1.00;;;;;;2609197;39;20496;-82
2022/08/04 11:23:32;;;;;;;8.03;7.53;;;33.90;1.00;;;;;;2606808;54;20415;-82
2022/08/04 11:26:20;;;;;;;8.33;7.60;;;35.20;1.00;;;;;;2609760;54;20445;-89
2022/08/04 11:28:59;;;;;;;11.27;8.10;;;34.20;1.00;;;;;;2607702;39;20826;-85
2022/08/04 11:31:31;;;;;;;8.20;7.70;;;34.40;1.00;;;;;;2613343;54;20427;-85
2022/08/04 11:34:03;;;;;;;9.97;9.07;;;32.90;1.00;;;;;;2609722;54;20455;-84
2022/08/04 11:36:37;;;;;;;22.33;20.37;;;33.80;1.00;;;;;;2609542;54;20501;-82
2022/08/04 11:39:12;;;;;;;93.87;86.47;;;33.60;1.00;;;;;;2613333;54;20434;-85
2022/08/04 11:41:52;;;;;;;18.33;16.70;;;33.10;1.00;;;;;;2614077;39;20788;-86
2022/08/04 11:44:54;;;;;;;45.53;41.40;;;32.80;1.00;;;;;;2613425;54;21254;-78
2022/08/04 11:47:22;;;;;;;12.03;11.03;;;32.80;1.00;;;;;;2612774;39;21059;-77
2022/08/04 11:50:10;;;;;;;78.60;71.67;;;32.70;1.00;;;;;;2604974;47;20618;-82
2022/08/04 11:52:39;;;;;;;10.67;9.20;;;32.70;1.00;;;;;;2605282;39;20504;-81
2022/08/04 11:55:10;;;;;;;9.57;8.70;;;32.70;1.00;;;;;;2606649;54;20525;-80
2022/08/04 11:57:37;;;;;;;10.43;9.50;;;32.30;1.00;;;;;;2603444;54;20545;-81
2022/08/04 12:00:14;;;;;;;8.83;8.33;;;32.50;1.00;;;;;;2605417;54;20535;-83
2022/08/04 12:02:54;;;;;;;9.10;7.60;;;31.60;1.00;;;;;;2606386;54;20920;-82
2022/08/04 12:05:40;;;;;;;7.83;7.43;;;31.70;1.00;;;;;;2605806;39;20794;-82
2022/08/04 12:08:37;;;;;;;25.53;20.33;;;31.70;1.00;;;;;;2604416;54;20996;-83
2022/08/04 12:11:23;;;;;;;9.33;7.60;;;31.70;1.00;;;;;;2605170;54;20422;-82
2022/08/04 12:14:08;;;;;;;14.40;8.87;;;32.20;1.00;;;;;;2607036;54;20410;-82
2022/08/04 12:16:39;;;;;;;8.60;7.93;;;32.40;1.00;;;;;;2605034;47;20424;-83
2022/08/04 12:19:17;;;;;;;8.43;7.73;;;31.60;1.00;;;;;;2606225;39;20675;-83
2022/08/04 12:21:49;;;;;;;8.83;8.23;;;31.90;1.00;;;;;;2603965;39;20788;-84
2022/08/04 12:24:22;;;;;;;10.00;7.93;;;31.70;1.00;;;;;;2607420;39;20649;-82
2022/08/04 12:26:58;;;;;;;9.90;8.80;;;31.30;1.00;;;;;;2603828;54;21903;-81
2022/08/04 12:29:30;;;;;;;8.40;7.80;;;31.30;1.00;;;;;;2605389;54;20419;-81
2022/08/04 12:31:58;;;;;;;9.70;8.70;;;31.20;1.00;;;;;;2607540;54;20456;-80
2022/08/04 12:34:23;;;;;;;8.03;7.53;;;31.40;1.00;;;;;;2607484;39;20527;-83
2022/08/04 12:37:03;;;;;;;8.27;7.70;;;31.10;1.00;;;;;;2607916;54;21250;-80
2022/08/04 12:39:30;;;;;;;9.03;8.20;;;31.20;1.00;;;;;;2607416;54;20152;-80
2022/08/04 12:41:57;;;;;;;8.97;8.10;;;31.40;1.00;;;;;;2606938;54;20423;-80
2022/08/04 12:44:24;;;;;;;8.90;8.00;;;31.70;1.00;;;;;;2607337;54;20405;-80
2022/08/04 12:46:50;;;;;;;8.23;7.40;;;31.50;1.00;;;;;;2607690;39;20834;-82
2022/08/04 12:49:17;;;;;;;8.57;7.70;;;32.30;1.00;;;;;;2607216;39;20508;-82
2022/08/04 12:51:44;;;;;;;8.37;7.77;;;32.60;1.00;;;;;;2606938;54;20455;-81
2022/08/04 12:54:11;;;;;;;8.87;8.10;;;32.90;1.00;;;;;;2604945;54;22133;-81
2022/08/04 12:56:39;;;;;;;9.40;8.80;;;32.10;1.00;;;;;;2605627;31;20598;-82
2022/08/04 12:59:10;;;;;;;10.10;8.77;;;31.60;1.00;;;;;;2604052;54;21187;-81
2022/08/04 13:01:37;;;;;;;8.47;7.70;;;31.50;1.00;;;;;;2604177;54;20424;-82
2022/08/04 13:04:11;;;;;;;14.43;8.90;;;31.10;1.00;;;;;;2613312;54;20426;-83
2022/08/04 13:06:38;;;;;;;8.73;7.93;;;31.60;1.20;;;;;;2609795;54;20410;-83
2022/08/04 13:09:10;;;;;;;9.67;8.77;;;31.70;2.00;;;;;;2613009;47;20477;-83
2022/08/04 13:11:39;;;;;;;9.77;8.60;;;31.50;1.00;;;;;;2610629;54;20433;-84
2022/08/04 13:14:08;;;;;;;9.17;8.27;;;32.30;1.00;;;;;;2612313;39;20819;-77
2022/08/04 13:16:34;;;;;;;12.87;8.73;;;32.30;1.00;;;;;;2611365;54;21027;-76
2022/08/04 13:19:01;;;;;;;8.40;7.63;;;32.80;1.00;;;;;;2606507;54;20419;-77
2022/08/04 13:21:29;;;;;;;8.13;7.37;;;32.60;1.00;;;;;;2612337;39;20498;-76
2022/08/04 13:24:04;;;;;;;10.00;8.80;;;34.00;1.00;;;;;;2608247;54;20424;-77
2022/08/04 13:26:31;;;;;;;9.63;8.20;;;33.20;1.00;;;;;;2604119;54;20544;-76
2022/08/04 13:29:00;;;;;;;15.43;7.90;;;32.90;1.00;;;;;;2605042;39;20770;-76
2022/08/04 13:31:28;;;;;;;10.23;7.90;;;32.70;1.00;;;;;;2605362;54;20971;-76
2022/08/04 13:34:04;;;;;;;8.90;7.67;;;32.80;1.00;;;;;;2607119;39;20520;-77
2022/08/04 13:36:30;;;;;;;9.37;8.20;;;33.40;1.00;;;;;;2605265;39;20534;-76